sensor_id;sensor_type;location;lat;lon;timestamp;P1;durP1;ratioP1;P2;durP2;ratioP2
33987;SDS011;37428;53.580;-1.666;2022-07-12T00:00:10;1.27;;;1.17;;
33987;SDS011;37428;53.580;-1.666;2022-07-12T00:03:13;5.32;;;1.27;;
33987;SDS011;37428;53.580;-1.666;2022-07-12T00:06:17;2.95;;;1.33;;
33987;SDS011;37428;53.580;-1.666;2022-07-12T00:09:27;2.33;;;1.38;;
33987;SDS011;37428;53.580;-1.666;2022-07-12T00:12:40;3.03;;;1.30;;
33987;SDS011;37428;53.580;-1.666;2022-07-12T00:15:57;5.22;;;1.38;;
33987;SDS011;37428;53.580;-1.666;2022-07-12T00:18:59;1.45;;;1.30;;
33987;SDS011;37428;53.580;-1.666;2022-07-12T00:22:10;1.52;;;1.42;;
33987;SDS011;37428;53.580;-1.666;2022-07-12T00:25:14;3.00;;;1.30;;
33987;SDS011;37428;53.580;-1.666;2022-07-12T00:28:20;1.67;;;1.58;;
33987;SDS011;37428;53.580;-1.666;2022-07-12T00:31:28;5.43;;;1.63;;
33987;SDS011;37428;53.580;-1.666;2022-07-12T00:34:32;2.47;;;1.77;;
33987;SDS011;37428;53.580;-1.666;2022-07-12T00:37:42;3.92;;;1.40;;
33987;SDS011;37428;53.580;-1.666;2022-07-12T00:40:46;3.15;;;1.73;;
33987;SDS011;37428;53.580;-1.666;2022-07-12T00:44:02;1.90;;;1.73;;
33987;SDS011;37428;53.580;-1.666;2022-07-12T00:47:04;1.45;;;1.35;;
33987;SDS011;37428;53.580;-1.666;2022-07-12T00:50:07;4.35;;;1.48;;
33987;SDS011;37428;53.580;-1.666;2022-07-12T00:53:14;3.13;;;1.50;;
33987;SDS011;37428;53.580;-1.666;2022-07-12T00:56:25;3.78;;;1.50;;
33987;SDS011;37428;53.580;-1.666;2022-07-12T00:59:29;3.13;;;1.65;;
33987;SDS011;37428;53.580;-1.666;2022-07-12T01:02:31;2.90;;;1.55;;
33987;SDS011;37428;53.580;-1.666;2022-07-12T01:05:40;3.90;;;1.27;;
33987;SDS011;37428;53.580;-1.666;2022-07-12T01:11:44;1.57;;;1.23;;
33987;SDS011;37428;53.580;-1.666;2022-07-12T01:14:48;8.75;;;2.08;;
33987;SDS011;37428;53.580;-1.666;2022-07-12T01:17:53;2.88;;;1.50;;
33987;SDS011;37428;53.580;-1.666;2022-07-12T01:21:03;3.78;;;1.60;;
33987;SDS011;37428;53.580;-1.666;2022-07-12T01:24:09;2.33;;;1.75;;
33987;SDS011;37428;53.580;-1.666;2022-07-12T01:27:12;3.47;;;1.50;;
33987;SDS011;37428;53.580;-1.666;2022-07-12T01:30:20;2.45;;;1.35;;
33987;SDS011;37428;53.580;-1.666;2022-07-12T01:33:27;3.05;;;1.38;;
33987;SDS011;37428;53.580;-1.666;2022-07-12T01:36:34;2.22;;;1.63;;
33987;SDS011;37428;53.580;-1.666;2022-07-12T01:39:39;5.22;;;1.90;;
33987;SDS011;37428;53.580;-1.666;2022-07-12T01:42:45;4.20;;;1.33;;
33987;SDS011;37428;53.580;-1.666;2022-07-12T01:45:57;1.65;;;1.55;;
33987;SDS011;37428;53.580;-1.666;2022-07-12T01:49:08;2.22;;;1.70;;
33987;SDS011;37428;53.580;-1.666;2022-07-12T01:52:23;2.47;;;1.60;;
33987;SDS011;37428;53.580;-1.666;2022-07-12T01:55:28;1.63;;;1.50;;
33987;SDS011;37428;53.580;-1.666;2022-07-12T01:58:33;6.57;;;1.88;;
33987;SDS011;37428;53.580;-1.666;2022-07-12T02:01:38;2.85;;;1.88;;
33987;SDS011;37428;53.580;-1.666;2022-07-12T02:04:46;2.05;;;1.88;;
33987;SDS011;37428;53.580;-1.666;2022-07-12T02:07:55;2.30;;;1.23;;
33987;SDS011;37428;53.580;-1.666;2022-07-12T02:11:01;2.67;;;1.17;;
33987;SDS011;37428;53.580;-1.666;2022-07-12T02:14:13;1.73;;;1.58;;
33987;SDS011;37428;53.580;-1.666;2022-07-12T02:17:18;10.95;;;1.85;;
33987;SDS011;37428;53.580;-1.666;2022-07-12T02:20:23;2.13;;;1.40;;
33987;SDS011;37428;53.580;-1.666;2022-07-12T02:23:25;2.72;;;1.20;;
33987;SDS011;37428;53.580;-1.666;2022-07-12T02:26:29;1.95;;;1.30;;
33987;SDS011;37428;53.580;-1.666;2022-07-12T02:29:35;2.47;;;1.20;;
33987;SDS011;37428;53.580;-1.666;2022-07-12T02:32:55;2.58;;;1.02;;
33987;SDS011;37428;53.580;-1.666;2022-07-12T02:36:13;5.82;;;1.77;;
33987;SDS011;37428;53.580;-1.666;2022-07-12T02:39:29;3.65;;;1.20;;
33987;SDS011;37428;53.580;-1.666;2022-07-12T02:42:37;2.38;;;1.10;;
33987;SDS011;37428;53.580;-1.666;2022-07-12T02:45:39;2.58;;;1.27;;
33987;SDS011;37428;53.580;-1.666;2022-07-12T02:48:43;4.78;;;1.38;;
33987;SDS011;37428;53.580;-1.666;2022-07-12T02:51:45;2.25;;;1.20;;
33987;SDS011;37428;53.580;-1.666;2022-07-12T02:55:01;3.83;;;0.98;;
33987;SDS011;37428;53.580;-1.666;2022-07-12T03:01:07;2.67;;;1.10;;
33987;SDS011;37428;53.580;-1.666;2022-07-12T03:04:15;1.83;;;1.02;;
33987;SDS011;37428;53.580;-1.666;2022-07-12T03:07:17;1.70;;;1.08;;
33987;SDS011;37428;53.580;-1.666;2022-07-12T03:10:19;2.60;;;1.10;;
33987;SDS011;37428;53.580;-1.666;2022-07-12T03:13:28;1.35;;;1.00;;
33987;SDS011;37428;53.580;-1.666;2022-07-12T03:16:30;1.67;;;1.10;;
33987;SDS011;37428;53.580;-1.666;2022-07-12T03:19:34;5.30;;;1.33;;
33987;SDS011;37428;53.580;-1.666;2022-07-12T03:22:38;3.88;;;1.30;;
33987;SDS011;37428;53.580;-1.666;2022-07-12T03:25:46;2.88;;;1.48;;
33987;SDS011;37428;53.580;-1.666;2022-07-12T03:28:49;4.75;;;1.30;;
33987;SDS011;37428;53.580;-1.666;2022-07-12T03:31:52;1.30;;;1.05;;
33987;SDS011;37428;53.580;-1.666;2022-07-12T03:34:57;5.15;;;1.38;;
33987;SDS011;37428;53.580;-1.666;2022-07-12T03:38:03;2.83;;;1.05;;
33987;SDS011;37428;53.580;-1.666;2022-07-12T03:44:09;2.03;;;0.98;;
33987;SDS011;37428;53.580;-1.666;2022-07-12T03:47:11;3.38;;;1.30;;
33987;SDS011;37428;53.580;-1.666;2022-07-12T03:50:20;2.47;;;0.93;;
33987;SDS011;37428;53.580;-1.666;2022-07-12T03:53:36;2.45;;;1.27;;
33987;SDS011;37428;53.580;-1.666;2022-07-12T03:56:44;2.85;;;1.00;;
33987;SDS011;37428;53.580;-1.666;2022-07-12T04:00:06;2.78;;;1.20;;
33987;SDS011;37428;53.580;-1.666;2022-07-12T04:03:13;1.67;;;1.10;;
33987;SDS011;37428;53.580;-1.666;2022-07-12T04:06:15;1.85;;;0.98;;
33987;SDS011;37428;53.580;-1.666;2022-07-12T04:09:28;2.05;;;1.08;;
33987;SDS011;37428;53.580;-1.666;2022-07-12T04:12:32;2.47;;;1.08;;
33987;SDS011;37428;53.580;-1.666;2022-07-12T04:15:37;5.47;;;1.40;;
33987;SDS011;37428;53.580;-1.666;2022-07-12T04:18:41;5.07;;;1.20;;
33987;SDS011;37428;53.580;-1.666;2022-07-12T04:21:47;5.65;;;1.38;;
33987;SDS011;37428;53.580;-1.666;2022-07-12T04:24:49;3.63;;;1.58;;
33987;SDS011;37428;53.580;-1.666;2022-07-12T04:27:58;2.00;;;1.15;;
33987;SDS011;37428;53.580;-1.666;2022-07-12T04:31:03;1.40;;;1.10;;
33987;SDS011;37428;53.580;-1.666;2022-07-12T04:34:05;2.38;;;1.30;;
33987;SDS011;37428;53.580;-1.666;2022-07-12T04:37:17;6.93;;;1.25;;
33987;SDS011;37428;53.580;-1.666;2022-07-12T04:40:33;3.90;;;1.00;;
33987;SDS011;37428;53.580;-1.666;2022-07-12T04:46:39;4.60;;;1.10;;
33987;SDS011;37428;53.580;-1.666;2022-07-12T04:49:44;1.35;;;1.05;;
33987;SDS011;37428;53.580;-1.666;2022-07-12T04:52:46;865.22;;;50.92;;
33987;SDS011;37428;53.580;-1.666;2022-07-12T04:55:49;1999.90;;;999.90;;
33987;SDS011;37428;53.580;-1.666;2022-07-12T05:01:54;1546.65;;;573.08;;
33987;SDS011;37428;53.580;-1.666;2022-07-12T05:05:01;1148.25;;;113.47;;
33987;SDS011;37428;53.580;-1.666;2022-07-12T05:11:13;3.53;;;1.30;;
33987;SDS011;37428;53.580;-1.666;2022-07-12T05:14:21;2.33;;;1.30;;
33987;SDS011;37428;53.580;-1.666;2022-07-12T05:17:26;4.20;;;1.50;;
33987;SDS011;37428;53.580;-1.666;2022-07-12T05:20:29;1.95;;;0.93;;
33987;SDS011;37428;53.580;-1.666;2022-07-12T05:23:32;1.65;;;1.10;;
33987;SDS011;37428;53.580;-1.666;2022-07-12T05:26:49;2.72;;;1.30;;
33987;SDS011;37428;53.580;-1.666;2022-07-12T05:29:51;1.42;;;1.10;;
33987;SDS011;37428;53.580;-1.666;2022-07-12T05:32:57;1.75;;;0.95;;
33987;SDS011;37428;53.580;-1.666;2022-07-12T05:36:01;3.15;;;1.00;;
33987;SDS011;37428;53.580;-1.666;2022-07-12T05:42:05;0.60;;;0.60;;
33987;SDS011;37428;53.580;-1.666;2022-07-12T05:45:15;2.45;;;0.80;;
33987;SDS011;37428;53.580;-1.666;2022-07-12T05:48:30;2.53;;;0.63;;
33987;SDS011;37428;53.580;-1.666;2022-07-12T05:51:35;1.65;;;0.70;;
33987;SDS011;37428;53.580;-1.666;2022-07-12T05:54:54;7.82;;;0.80;;
33987;SDS011;37428;53.580;-1.666;2022-07-12T05:57:57;3.78;;;0.80;;
33987;SDS011;37428;53.580;-1.666;2022-07-12T06:01:01;1.98;;;0.77;;
33987;SDS011;37428;53.580;-1.666;2022-07-12T06:04:05;5.68;;;1.17;;
33987;SDS011;37428;53.580;-1.666;2022-07-12T06:07:07;3.78;;;0.70;;
33987;SDS011;37428;53.580;-1.666;2022-07-12T06:10:11;4.32;;;0.80;;
33987;SDS011;37428;53.580;-1.666;2022-07-12T06:13:13;1.17;;;0.77;;
33987;SDS011;37428;53.580;-1.666;2022-07-12T06:16:25;2.35;;;0.90;;
33987;SDS011;37428;53.580;-1.666;2022-07-12T06:19:31;1.48;;;1.00;;
33987;SDS011;37428;53.580;-1.666;2022-07-12T06:22:33;5.05;;;0.77;;
33987;SDS011;37428;53.580;-1.666;2022-07-12T06:25:42;3.38;;;0.88;;
33987;SDS011;37428;53.580;-1.666;2022-07-12T06:28:47;3.15;;;1.02;;
33987;SDS011;37428;53.580;-1.666;2022-07-12T06:31:55;5.30;;;1.17;;
33987;SDS011;37428;53.580;-1.666;2022-07-12T06:35:05;3.60;;;0.85;;
33987;SDS011;37428;53.580;-1.666;2022-07-12T06:38:08;5.13;;;0.80;;
33987;SDS011;37428;53.580;-1.666;2022-07-12T06:41:12;2.47;;;1.27;;
33987;SDS011;37428;53.580;-1.666;2022-07-12T06:44:26;0.90;;;0.90;;
33987;SDS011;37428;53.580;-1.666;2022-07-12T06:47:29;0.95;;;0.50;;
33987;SDS011;37428;53.580;-1.666;2022-07-12T06:50:36;3.20;;;0.95;;
33987;SDS011;37428;53.580;-1.666;2022-07-12T06:53:38;4.45;;;0.70;;
33987;SDS011;37428;53.580;-1.666;2022-07-12T06:56:45;3.05;;;1.08;;
33987;SDS011;37428;53.580;-1.666;2022-07-12T07:02:55;3.75;;;1.38;;
33987;SDS011;37428;53.580;-1.666;2022-07-12T07:05:58;2.13;;;0.90;;
33987;SDS011;37428;53.580;-1.666;2022-07-12T07:09:01;2.42;;;0.73;;
33987;SDS011;37428;53.580;-1.666;2022-07-12T07:12:07;4.13;;;1.02;;
33987;SDS011;37428;53.580;-1.666;2022-07-12T07:15:12;3.60;;;0.82;;
33987;SDS011;37428;53.580;-1.666;2022-07-12T07:18:17;4.70;;;0.70;;
33987;SDS011;37428;53.580;-1.666;2022-07-12T07:21:21;2.28;;;1.00;;
33987;SDS011;37428;53.580;-1.666;2022-07-12T07:24:23;2.20;;;1.00;;
33987;SDS011;37428;53.580;-1.666;2022-07-12T07:27:25;3.67;;;0.75;;
33987;SDS011;37428;53.580;-1.666;2022-07-12T07:30:27;3.03;;;0.85;;
33987;SDS011;37428;53.580;-1.666;2022-07-12T07:33:47;0.40;;;0.32;;
33987;SDS011;37428;53.580;-1.666;2022-07-12T07:36:50;1.77;;;0.80;;
33987;SDS011;37428;53.580;-1.666;2022-07-12T07:39:53;1.50;;;0.90;;
33987;SDS011;37428;53.580;-1.666;2022-07-12T07:42:55;2.72;;;1.20;;
33987;SDS011;37428;53.580;-1.666;2022-07-12T07:46:18;3.53;;;0.60;;
33987;SDS011;37428;53.580;-1.666;2022-07-12T07:49:36;1.45;;;0.70;;
33987;SDS011;37428;53.580;-1.666;2022-07-12T07:52:43;2.55;;;0.55;;
33987;SDS011;37428;53.580;-1.666;2022-07-12T07:55:51;3.45;;;1.25;;
33987;SDS011;37428;53.580;-1.666;2022-07-12T07:58:57;2.08;;;0.85;;
33987;SDS011;37428;53.580;-1.666;2022-07-12T08:02:01;3.75;;;1.00;;
33987;SDS011;37428;53.580;-1.666;2022-07-12T08:05:04;4.85;;;0.88;;
33987;SDS011;37428;53.580;-1.666;2022-07-12T08:08:17;1.75;;;0.60;;
33987;SDS011;37428;53.580;-1.666;2022-07-12T08:11:19;1.15;;;0.93;;
33987;SDS011;37428;53.580;-1.666;2022-07-12T08:14:23;3.58;;;0.90;;
33987;SDS011;37428;53.580;-1.666;2022-07-12T08:20:28;6.78;;;1.30;;
33987;SDS011;37428;53.580;-1.666;2022-07-12T08:26:58;2.75;;;0.70;;
33987;SDS011;37428;53.580;-1.666;2022-07-12T08:30:02;1.40;;;0.65;;
33987;SDS011;37428;53.580;-1.666;2022-07-12T08:33:11;7.60;;;1.15;;
33987;SDS011;37428;53.580;-1.666;2022-07-12T08:36:28;2.90;;;1.20;;
33987;SDS011;37428;53.580;-1.666;2022-07-12T08:39:32;13.95;;;2.03;;
33987;SDS011;37428;53.580;-1.666;2022-07-12T08:42:40;0.98;;;0.90;;
33987;SDS011;37428;53.580;-1.666;2022-07-12T08:45:53;1.20;;;0.70;;
33987;SDS011;37428;53.580;-1.666;2022-07-12T08:48:57;2.00;;;1.00;;
33987;SDS011;37428;53.580;-1.666;2022-07-12T08:55:33;1.33;;;1.05;;
33987;SDS011;37428;53.580;-1.666;2022-07-12T08:58:38;0.70;;;0.63;;
33987;SDS011;37428;53.580;-1.666;2022-07-12T09:01:42;3.58;;;1.10;;
33987;SDS011;37428;53.580;-1.666;2022-07-12T09:04:47;1.65;;;0.80;;
33987;SDS011;37428;53.580;-1.666;2022-07-12T09:08:09;2.13;;;0.90;;
33987;SDS011;37428;53.580;-1.666;2022-07-12T09:11:14;1.33;;;0.70;;
33987;SDS011;37428;53.580;-1.666;2022-07-12T09:14:32;3.38;;;1.33;;
33987;SDS011;37428;53.580;-1.666;2022-07-12T09:17:35;0.63;;;0.63;;
33987;SDS011;37428;53.580;-1.666;2022-07-12T09:20:37;1.17;;;0.77;;
33987;SDS011;37428;53.580;-1.666;2022-07-12T09:23:50;1.30;;;0.90;;
33987;SDS011;37428;53.580;-1.666;2022-07-12T09:27:01;1.85;;;0.85;;
33987;SDS011;37428;53.580;-1.666;2022-07-12T09:30:04;3.53;;;0.90;;
33987;SDS011;37428;53.580;-1.666;2022-07-12T09:33:31;1.85;;;0.73;;
33987;SDS011;37428;53.580;-1.666;2022-07-12T09:36:56;3.35;;;0.88;;
33987;SDS011;37428;53.580;-1.666;2022-07-12T09:40:12;3.88;;;1.00;;
33987;SDS011;37428;53.580;-1.666;2022-07-12T09:43:16;0.63;;;0.50;;
33987;SDS011;37428;53.580;-1.666;2022-07-12T09:46:20;1.85;;;0.80;;
33987;SDS011;37428;53.580;-1.666;2022-07-12T09:49:28;1.85;;;0.90;;
33987;SDS011;37428;53.580;-1.666;2022-07-12T09:52:32;3.60;;;1.25;;
33987;SDS011;37428;53.580;-1.666;2022-07-12T09:59:09;0.88;;;0.50;;
33987;SDS011;37428;53.580;-1.666;2022-07-12T10:02:21;3.65;;;1.10;;
33987;SDS011;37428;53.580;-1.666;2022-07-12T10:05:24;1.08;;;0.70;;
33987;SDS011;37428;53.580;-1.666;2022-07-12T10:08:26;2.65;;;1.10;;
33987;SDS011;37428;53.580;-1.666;2022-07-12T10:11:31;1.20;;;0.85;;
33987;SDS011;37428;53.580;-1.666;2022-07-12T10:14:37;5.68;;;1.00;;
33987;SDS011;37428;53.580;-1.666;2022-07-12T10:17:40;2.10;;;0.75;;
33987;SDS011;37428;53.580;-1.666;2022-07-12T10:20:54;1.80;;;0.90;;
33987;SDS011;37428;53.580;-1.666;2022-07-12T10:23:56;0.88;;;0.85;;
33987;SDS011;37428;53.580;-1.666;2022-07-12T10:30:44;1.27;;;1.15;;
33987;SDS011;37428;53.580;-1.666;2022-07-12T10:34:19;5.20;;;0.90;;
33987;SDS011;37428;53.580;-1.666;2022-07-12T10:37:34;3.83;;;0.98;;
33987;SDS011;37428;53.580;-1.666;2022-07-12T10:40:38;1.45;;;1.13;;
33987;SDS011;37428;53.580;-1.666;2022-07-12T10:43:44;2.78;;;1.00;;
33987;SDS011;37428;53.580;-1.666;2022-07-12T10:53:59;2.08;;;0.88;;
33987;SDS011;37428;53.580;-1.666;2022-07-12T10:57:37;2.63;;;1.00;;
33987;SDS011;37428;53.580;-1.666;2022-07-12T11:00:41;1.08;;;1.02;;
33987;SDS011;37428;53.580;-1.666;2022-07-12T11:04:03;1.30;;;0.75;;
33987;SDS011;37428;53.580;-1.666;2022-07-12T11:07:23;3.08;;;1.20;;
33987;SDS011;37428;53.580;-1.666;2022-07-12T11:10:30;1.27;;;1.10;;
33987;SDS011;37428;53.580;-1.666;2022-07-12T11:13:53;1.45;;;0.98;;
33987;SDS011;37428;53.580;-1.666;2022-07-12T11:17:19;4.25;;;1.27;;
33987;SDS011;37428;53.580;-1.666;2022-07-12T11:20:28;0.80;;;0.80;;
33987;SDS011;37428;53.580;-1.666;2022-07-12T11:23:32;4.28;;;0.85;;
33987;SDS011;37428;53.580;-1.666;2022-07-12T11:26:42;2.75;;;0.60;;
33987;SDS011;37428;53.580;-1.666;2022-07-12T11:29:55;1.63;;;0.70;;
33987;SDS011;37428;53.580;-1.666;2022-07-12T11:36:13;2.70;;;0.90;;
33987;SDS011;37428;53.580;-1.666;2022-07-12T11:39:32;1.42;;;0.70;;
33987;SDS011;37428;53.580;-1.666;2022-07-12T11:42:57;0.98;;;0.88;;
33987;SDS011;37428;53.580;-1.666;2022-07-12T11:46:23;1.88;;;0.80;;
33987;SDS011;37428;53.580;-1.666;2022-07-12T11:49:27;1.23;;;0.60;;
33987;SDS011;37428;53.580;-1.666;2022-07-12T11:52:37;0.85;;;0.70;;
33987;SDS011;37428;53.580;-1.666;2022-07-12T11:55:41;5.47;;;1.00;;
33987;SDS011;37428;53.580;-1.666;2022-07-12T11:58:54;2.38;;;0.80;;
33987;SDS011;37428;53.580;-1.666;2022-07-12T12:02:04;1.63;;;0.80;;
33987;SDS011;37428;53.580;-1.666;2022-07-12T12:05:10;1.60;;;0.90;;
33987;SDS011;37428;53.580;-1.666;2022-07-12T12:08:16;2.92;;;1.08;;
33987;SDS011;37428;53.580;-1.666;2022-07-12T12:11:25;2.50;;;1.08;;
33987;SDS011;37428;53.580;-1.666;2022-07-12T12:14:34;1.58;;;1.05;;
33987;SDS011;37428;53.580;-1.666;2022-07-12T12:17:45;1.35;;;0.90;;
33987;SDS011;37428;53.580;-1.666;2022-07-12T12:20:56;2.22;;;0.63;;
33987;SDS011;37428;53.580;-1.666;2022-07-12T12:27:26;1.20;;;1.00;;
33987;SDS011;37428;53.580;-1.666;2022-07-12T12:30:32;1.90;;;0.70;;
33987;SDS011;37428;53.580;-1.666;2022-07-12T12:33:35;1.52;;;0.70;;
33987;SDS011;37428;53.580;-1.666;2022-07-12T12:36:44;0.60;;;0.45;;
33987;SDS011;37428;53.580;-1.666;2022-07-12T12:40:08;1.75;;;0.55;;
33987;SDS011;37428;53.580;-1.666;2022-07-12T12:43:11;1.20;;;0.70;;
33987;SDS011;37428;53.580;-1.666;2022-07-12T12:46:14;2.28;;;0.50;;
33987;SDS011;37428;53.580;-1.666;2022-07-12T12:49:43;0.80;;;0.80;;
33987;SDS011;37428;53.580;-1.666;2022-07-12T12:52:50;2.60;;;0.40;;
33987;SDS011;37428;53.580;-1.666;2022-07-12T12:59:30;11.00;;;0.85;;
33987;SDS011;37428;53.580;-1.666;2022-07-12T13:02:40;6.55;;;0.50;;
33987;SDS011;37428;53.580;-1.666;2022-07-12T13:05:58;2.08;;;0.65;;
33987;SDS011;37428;53.580;-1.666;2022-07-12T13:09:01;1.00;;;0.60;;
33987;SDS011;37428;53.580;-1.666;2022-07-12T13:12:07;4.72;;;0.60;;
33987;SDS011;37428;53.580;-1.666;2022-07-12T13:15:09;1.75;;;0.50;;
33987;SDS011;37428;53.580;-1.666;2022-07-12T13:18:32;1.90;;;0.65;;
33987;SDS011;37428;53.580;-1.666;2022-07-12T13:21:37;2.45;;;0.57;;
33987;SDS011;37428;53.580;-1.666;2022-07-12T13:24:41;2.88;;;0.50;;
33987;SDS011;37428;53.580;-1.666;2022-07-12T13:27:50;1.52;;;0.60;;
33987;SDS011;37428;53.580;-1.666;2022-07-12T13:30:53;2.47;;;1.20;;
33987;SDS011;37428;53.580;-1.666;2022-07-12T13:33:55;0.45;;;0.45;;
33987;SDS011;37428;53.580;-1.666;2022-07-12T13:37:03;2.85;;;0.88;;
33987;SDS011;37428;53.580;-1.666;2022-07-12T13:40:09;4.57;;;0.75;;
33987;SDS011;37428;53.580;-1.666;2022-07-12T13:43:22;3.60;;;0.43;;
33987;SDS011;37428;53.580;-1.666;2022-07-12T13:46:24;0.57;;;0.52;;
33987;SDS011;37428;53.580;-1.666;2022-07-12T13:49:46;0.50;;;0.43;;
33987;SDS011;37428;53.580;-1.666;2022-07-12T13:52:54;0.63;;;0.50;;
33987;SDS011;37428;53.580;-1.666;2022-07-12T13:56:01;1.33;;;0.40;;
33987;SDS011;37428;53.580;-1.666;2022-07-12T13:59:05;1.35;;;0.77;;
33987;SDS011;37428;53.580;-1.666;2022-07-12T14:02:07;1.08;;;0.65;;
33987;SDS011;37428;53.580;-1.666;2022-07-12T14:05:12;0.40;;;0.40;;
33987;SDS011;37428;53.580;-1.666;2022-07-12T14:08:15;2.78;;;0.65;;
33987;SDS011;37428;53.580;-1.666;2022-07-12T14:13:13;0.32;;;0.30;;
33987;SDS011;37428;53.580;-1.666;2022-07-12T14:15:04;0.63;;;0.40;;
33987;SDS011;37428;53.580;-1.666;2022-07-12T14:18:21;2.17;;;0.60;;
33987;SDS011;37428;53.580;-1.666;2022-07-12T14:21:29;0.93;;;0.40;;
33987;SDS011;37428;53.580;-1.666;2022-07-12T14:24:31;3.42;;;0.63;;
33987;SDS011;37428;53.580;-1.666;2022-07-12T14:27:34;1.55;;;0.50;;
33987;SDS011;37428;53.580;-1.666;2022-07-12T14:30:52;0.80;;;0.70;;
33987;SDS011;37428;53.580;-1.666;2022-07-12T14:34:00;5.03;;;0.60;;
33987;SDS011;37428;53.580;-1.666;2022-07-12T14:37:07;0.52;;;0.40;;
33987;SDS011;37428;53.580;-1.666;2022-07-12T14:40:12;2.25;;;0.50;;
33987;SDS011;37428;53.580;-1.666;2022-07-12T14:46:42;0.85;;;0.57;;
33987;SDS011;37428;53.580;-1.666;2022-07-12T14:49:47;2.72;;;0.60;;
33987;SDS011;37428;53.580;-1.666;2022-07-12T14:53:01;1.67;;;0.50;;
33987;SDS011;37428;53.580;-1.666;2022-07-12T14:56:05;1.20;;;0.50;;
33987;SDS011;37428;53.580;-1.666;2022-07-12T14:59:08;1.95;;;0.50;;
33987;SDS011;37428;53.580;-1.666;2022-07-12T15:02:17;2.35;;;0.65;;
33987;SDS011;37428;53.580;-1.666;2022-07-12T15:05:21;1.85;;;0.63;;
33987;SDS011;37428;53.580;-1.666;2022-07-12T15:08:53;2.67;;;0.63;;
33987;SDS011;37428;53.580;-1.666;2022-07-12T15:12:09;3.60;;;0.60;;
33987;SDS011;37428;53.580;-1.666;2022-07-12T15:15:39;0.50;;;0.50;;
33987;SDS011;37428;53.580;-1.666;2022-07-12T15:18:52;0.40;;;0.30;;
33987;SDS011;37428;53.580;-1.666;2022-07-12T15:21:58;1.25;;;0.60;;
33987;SDS011;37428;53.580;-1.666;2022-07-12T15:25:06;3.35;;;0.50;;
33987;SDS011;37428;53.580;-1.666;2022-07-12T15:28:29;0.65;;;0.45;;
33987;SDS011;37428;53.580;-1.666;2022-07-12T15:31:31;0.65;;;0.40;;
33987;SDS011;37428;53.580;-1.666;2022-07-12T15:34:52;1.58;;;0.65;;
33987;SDS011;37428;53.580;-1.666;2022-07-12T15:37:57;1.15;;;0.60;;
33987;SDS011;37428;53.580;-1.666;2022-07-12T15:44:21;0.50;;;0.50;;
33987;SDS011;37428;53.580;-1.666;2022-07-12T15:47:29;1.38;;;0.90;;
33987;SDS011;37428;53.580;-1.666;2022-07-12T15:50:53;1.15;;;0.70;;
33987;SDS011;37428;53.580;-1.666;2022-07-12T15:53:57;0.50;;;0.50;;
33987;SDS011;37428;53.580;-1.666;2022-07-12T15:57:09;3.25;;;0.52;;
33987;SDS011;37428;53.580;-1.666;2022-07-12T16:00:24;2.78;;;0.60;;
33987;SDS011;37428;53.580;-1.666;2022-07-12T16:03:34;0.60;;;0.52;;
33987;SDS011;37428;53.580;-1.666;2022-07-12T16:06:55;1.25;;;0.60;;
33987;SDS011;37428;53.580;-1.666;2022-07-12T16:10:02;0.88;;;0.65;;
33987;SDS011;37428;53.580;-1.666;2022-07-12T16:13:06;2.05;;;0.60;;
33987;SDS011;37428;53.580;-1.666;2022-07-12T16:16:18;1.80;;;0.50;;
33987;SDS011;37428;53.580;-1.666;2022-07-12T16:19:36;0.90;;;0.60;;
33987;SDS011;37428;53.580;-1.666;2022-07-12T16:22:50;1.48;;;0.82;;
33987;SDS011;37428;53.580;-1.666;2022-07-12T16:26:00;1.20;;;1.08;;
33987;SDS011;37428;53.580;-1.666;2022-07-12T16:29:18;2.00;;;0.60;;
33987;SDS011;37428;53.580;-1.666;2022-07-12T16:32:30;1.15;;;0.65;;
33987;SDS011;37428;53.580;-1.666;2022-07-12T16:35:34;5.57;;;0.70;;
33987;SDS011;37428;53.580;-1.666;2022-07-12T16:38:44;2.42;;;0.60;;
33987;SDS011;37428;53.580;-1.666;2022-07-12T16:41:47;1.02;;;0.50;;
33987;SDS011;37428;53.580;-1.666;2022-07-12T16:44:50;6.20;;;0.70;;
33987;SDS011;37428;53.580;-1.666;2022-07-12T16:51:33;2.65;;;0.70;;
33987;SDS011;37428;53.580;-1.666;2022-07-12T16:54:39;1.15;;;0.75;;
33987;SDS011;37428;53.580;-1.666;2022-07-12T16:57:51;0.65;;;0.65;;
33987;SDS011;37428;53.580;-1.666;2022-07-12T17:00:56;0.73;;;0.63;;
33987;SDS011;37428;53.580;-1.666;2022-07-12T17:04:00;2.17;;;0.40;;
33987;SDS011;37428;53.580;-1.666;2022-07-12T17:07:03;0.52;;;0.52;;
33987;SDS011;37428;53.580;-1.666;2022-07-12T17:10:14;0.70;;;0.60;;
33987;SDS011;37428;53.580;-1.666;2022-07-12T17:16:37;1.13;;;0.73;;
33987;SDS011;37428;53.580;-1.666;2022-07-12T17:19:44;1.15;;;0.73;;
33987;SDS011;37428;53.580;-1.666;2022-07-12T17:22:48;1.45;;;0.60;;
33987;SDS011;37428;53.580;-1.666;2022-07-12T17:25:55;1.50;;;0.60;;
33987;SDS011;37428;53.580;-1.666;2022-07-12T17:28:59;1.80;;;0.50;;
33987;SDS011;37428;53.580;-1.666;2022-07-12T17:32:23;5.25;;;0.60;;
33987;SDS011;37428;53.580;-1.666;2022-07-12T17:35:41;2.50;;;0.52;;
33987;SDS011;37428;53.580;-1.666;2022-07-12T17:44:51;1.65;;;0.68;;
33987;SDS011;37428;53.580;-1.666;2022-07-12T17:47:53;2.13;;;0.82;;
33987;SDS011;37428;53.580;-1.666;2022-07-12T17:51:16;2.05;;;0.82;;
33987;SDS011;37428;53.580;-1.666;2022-07-12T17:54:18;2.15;;;0.82;;
33987;SDS011;37428;53.580;-1.666;2022-07-12T17:57:28;2.88;;;1.00;;
33987;SDS011;37428;53.580;-1.666;2022-07-12T18:00:30;2.13;;;0.90;;
33987;SDS011;37428;53.580;-1.666;2022-07-12T18:03:53;0.88;;;0.60;;
33987;SDS011;37428;53.580;-1.666;2022-07-12T18:07:01;3.55;;;0.88;;
33987;SDS011;37428;53.580;-1.666;2022-07-12T18:13:32;5.50;;;0.68;;
33987;SDS011;37428;53.580;-1.666;2022-07-12T18:17:06;1.05;;;0.60;;
33987;SDS011;37428;53.580;-1.666;2022-07-12T18:21:05;2.92;;;1.00;;
33987;SDS011;37428;53.580;-1.666;2022-07-12T18:23:53;1.58;;;0.63;;
33987;SDS011;37428;53.580;-1.666;2022-07-12T18:33:29;1.95;;;0.95;;
33987;SDS011;37428;53.580;-1.666;2022-07-12T18:36:35;1.77;;;0.65;;
33987;SDS011;37428;53.580;-1.666;2022-07-12T18:39:37;1.23;;;0.80;;
33987;SDS011;37428;53.580;-1.666;2022-07-12T18:42:55;2.10;;;1.25;;
33987;SDS011;37428;53.580;-1.666;2022-07-12T18:46:03;1.33;;;0.70;;
33987;SDS011;37428;53.580;-1.666;2022-07-12T18:49:05;1.10;;;0.85;;
33987;SDS011;37428;53.580;-1.666;2022-07-12T18:52:10;2.15;;;1.10;;
33987;SDS011;37428;53.580;-1.666;2022-07-12T18:55:15;1.50;;;0.93;;
33987;SDS011;37428;53.580;-1.666;2022-07-12T18:58:17;1.30;;;0.70;;
33987;SDS011;37428;53.580;-1.666;2022-07-12T19:01:35;1.35;;;0.82;;
33987;SDS011;37428;53.580;-1.666;2022-07-12T19:04:47;2.50;;;0.80;;
33987;SDS011;37428;53.580;-1.666;2022-07-12T19:08:13;1.10;;;0.80;;
33987;SDS011;37428;53.580;-1.666;2022-07-12T19:11:17;3.58;;;0.60;;
33987;SDS011;37428;53.580;-1.666;2022-07-12T19:14:21;2.50;;;0.95;;
33987;SDS011;37428;53.580;-1.666;2022-07-12T19:17:26;2.85;;;0.75;;
33987;SDS011;37428;53.580;-1.666;2022-07-12T19:20:29;1.85;;;0.95;;
33987;SDS011;37428;53.580;-1.666;2022-07-12T19:23:47;1.02;;;0.90;;
33987;SDS011;37428;53.580;-1.666;2022-07-12T19:26:51;3.88;;;1.15;;
33987;SDS011;37428;53.580;-1.666;2022-07-12T19:30:07;4.32;;;2.05;;
33987;SDS011;37428;53.580;-1.666;2022-07-12T19:33:11;5.47;;;1.55;;
33987;SDS011;37428;53.580;-1.666;2022-07-12T19:36:16;1.33;;;1.10;;
33987;SDS011;37428;53.580;-1.666;2022-07-12T19:39:21;2.25;;;1.20;;
33987;SDS011;37428;53.580;-1.666;2022-07-12T19:42:33;3.35;;;1.00;;
33987;SDS011;37428;53.580;-1.666;2022-07-12T19:48:40;4.13;;;1.30;;
33987;SDS011;37428;53.580;-1.666;2022-07-12T19:51:42;2.47;;;1.15;;
33987;SDS011;37428;53.580;-1.666;2022-07-12T19:54:50;2.67;;;1.30;;
33987;SDS011;37428;53.580;-1.666;2022-07-12T19:58:00;2.33;;;1.00;;
33987;SDS011;37428;53.580;-1.666;2022-07-12T20:01:07;7.97;;;1.23;;
33987;SDS011;37428;53.580;-1.666;2022-07-12T20:04:15;1.45;;;1.15;;
33987;SDS011;37428;53.580;-1.666;2022-07-12T20:07:19;3.10;;;1.52;;